sensor_id;sensor_type;location;lat;lon;timestamp;pressure;altitude;pressure_sealevel;temperature;humidity
59009;BME280;44794;42.652;23.318;2022-12-16T00:01:30;94138.44;;;4.55;100.00
59009;BME280;44794;42.652;23.318;2022-12-16T00:03:57;94143.41;;;4.58;100.00
59009;BME280;44794;42.652;23.318;2022-12-16T00:06:26;94150.00;;;4.62;100.00
59009;BME280;44794;42.652;23.318;2022-12-16T00:08:53;94179.97;;;4.63;100.00
59009;BME280;44794;42.652;23.318;2022-12-16T00:11:18;94154.50;;;4.58;100.00
59009;BME280;44794;42.652;23.318;2022-12-16T00:13:44;94159.50;;;4.46;100.00
59009;BME280;44794;42.652;23.318;2022-12-16T00:16:11;94152.81;;;4.43;100.00
59009;BME280;44794;42.652;23.318;2022-12-16T00:18:37;94160.06;;;4.37;100.00
59009;BME280;44794;42.652;23.318;2022-12-16T00:21:03;94156.38;;;4.41;100.00
59009;BME280;44794;42.652;23.318;2022-12-16T00:23:29;94170.56;;;4.48;100.00
59009;BME280;44794;42.652;23.318;2022-12-16T00:25:55;94149.81;;;4.51;100.00
59009;BME280;44794;42.652;23.318;2022-12-16T00:28:20;94152.19;;;4.54;100.00
59009;BME280;44794;42.652;23.318;2022-12-16T00:30:48;94143.94;;;4.49;100.00
59009;BME280;44794;42.652;23.318;2022-12-16T00:33:13;94160.63;;;4.42;100.00
59009;BME280;44794;42.652;23.318;2022-12-16T00:35:39;94170.56;;;4.48;100.00
59009;BME280;44794;42.652;23.318;2022-12-16T00:38:04;94165.16;;;4.52;100.00
59009;BME280;44794;42.652;23.318;2022-12-16T00:40:30;94148.16;;;4.50;100.00
59009;BME280;44794;42.652;23.318;2022-12-16T00:42:55;94154.09;;;4.37;100.00
59009;BME280;44794;42.652;23.318;2022-12-16T00:45:21;94157.72;;;4.19;100.00
59009;BME280;44794;42.652;23.318;2022-12-16T00:47:48;94147.19;;;4.23;100.00
59009;BME280;44794;42.652;23.318;2022-12-16T00:50:15;94158.09;;;4.27;100.00
59009;BME280;44794;42.652;23.318;2022-12-16T00:52:40;94146.78;;;4.15;100.00
59009;BME280;44794;42.652;23.318;2022-12-16T00:55:06;94149.28;;;4.01;100.00
59009;BME280;44794;42.652;23.318;2022-12-16T00:57:32;94143.47;;;4.13;100.00
59009;BME280;44794;42.652;23.318;2022-12-16T00:59:58;94151.72;;;4.18;100.00
59009;BME280;44794;42.652;23.318;2022-12-16T01:02:23;94127.28;;;4.27;100.00
59009;BME280;44794;42.652;23.318;2022-12-16T01:04:49;94124.06;;;4.23;100.00
59009;BME280;44794;42.652;23.318;2022-12-16T01:07:14;94145.94;;;4.15;100.00
59009;BME280;44794;42.652;23.318;2022-12-16T01:09:39;94156.72;;;4.21;100.00
59009;BME280;44794;42.652;23.318;2022-12-16T01:12:05;94148.25;;;4.19;100.00
59009;BME280;44794;42.652;23.318;2022-12-16T01:14:31;94145.69;;;4.19;100.00
59009;BME280;44794;42.652;23.318;2022-12-16T01:16:56;94156.50;;;4.10;100.00
59009;BME280;44794;42.652;23.318;2022-12-16T01:19:21;94170.66;;;4.17;100.00
59009;BME280;44794;42.652;23.318;2022-12-16T01:21:47;94169.47;;;4.23;100.00
59009;BME280;44794;42.652;23.318;2022-12-16T01:24:13;94164.72;;;4.31;100.00
59009;BME280;44794;42.652;23.318;2022-12-16T01:26:38;94138.91;;;4.32;100.00
59009;BME280;44794;42.652;23.318;2022-12-16T01:29:04;94123.59;;;4.31;100.00
59009;BME280;44794;42.652;23.318;2022-12-16T01:31:30;94133.97;;;4.29;100.00
59009;BME280;44794;42.652;23.318;2022-12-16T01:33:55;94135.78;;;4.27;100.00
59009;BME280;44794;42.652;23.318;2022-12-16T01:36:21;94132.47;;;4.25;100.00
59009;BME280;44794;42.652;23.318;2022-12-16T01:38:47;94131.97;;;4.34;100.00
59009;BME280;44794;42.652;23.318;2022-12-16T01:41:14;94131.59;;;4.40;100.00
59009;BME280;44794;42.652;23.318;2022-12-16T01:43:40;94133.56;;;4.50;100.00
59009;BME280;44794;42.652;23.318;2022-12-16T05:48:42;94150.69;;;4.36;100.00
59009;BME280;44794;42.652;23.318;2022-12-16T05:51:26;94159.88;;;4.40;100.00
59009;BME280;44794;42.652;23.318;2022-12-16T05:54:10;94154.13;;;4.50;100.00
59009;BME280;44794;42.652;23.318;2022-12-16T05:56:54;94134.44;;;4.36;100.00
59009;BME280;44794;42.652;23.318;2022-12-16T05:59:38;94153.41;;;4.48;100.00
59009;BME280;44794;42.652;23.318;2022-12-16T06:02:22;94161.75;;;4.52;100.00
59009;BME280;44794;42.652;23.318;2022-12-16T06:05:06;94167.72;;;4.52;100.00
59009;BME280;44794;42.652;23.318;2022-12-16T06:07:51;94182.66;;;4.46;100.00
59009;BME280;44794;42.652;23.318;2022-12-16T06:10:35;94189.00;;;4.41;100.00
59009;BME280;44794;42.652;23.318;2022-12-16T06:13:19;94182.44;;;4.35;100.00
59009;BME280;44794;42.652;23.318;2022-12-16T06:16:03;94175.13;;;4.43;100.00
59009;BME280;44794;42.652;23.318;2022-12-16T06:19:01;94176.25;;;4.53;100.00
59009;BME280;44794;42.652;23.318;2022-12-16T06:21:45;94207.00;;;4.25;100.00
59009;BME280;44794;42.652;23.318;2022-12-16T06:24:29;94205.78;;;4.17;100.00
59009;BME280;44794;42.652;23.318;2022-12-16T06:27:13;94184.97;;;4.21;100.00
59009;BME280;44794;42.652;23.318;2022-12-16T06:29:57;94172.00;;;4.38;100.00
59009;BME280;44794;42.652;23.318;2022-12-16T06:32:41;94163.75;;;4.47;100.00
59009;BME280;44794;42.652;23.318;2022-12-16T06:35:25;94155.06;;;4.63;100.00
59009;BME280;44794;42.652;23.318;2022-12-16T06:38:09;94160.56;;;4.57;100.00
59009;BME280;44794;42.652;23.318;2022-12-16T06:40:53;94144.31;;;4.57;100.00
59009;BME280;44794;42.652;23.318;2022-12-16T06:43:37;94159.03;;;4.69;100.00
59009;BME280;44794;42.652;23.318;2022-12-16T06:46:20;94141.88;;;4.83;100.00
59009;BME280;44794;42.652;23.318;2022-12-16T06:49:04;94140.03;;;4.85;100.00
59009;BME280;44794;42.652;23.318;2022-12-16T06:51:48;94123.59;;;5.02;100.00
59009;BME280;44794;42.652;23.318;2022-12-16T06:54:49;94151.88;;;5.02;100.00
59009;BME280;44794;42.652;23.318;2022-12-16T06:57:33;94157.88;;;5.02;100.00
59009;BME280;44794;42.652;23.318;2022-12-16T07:00:17;94134.88;;;5.13;100.00
59009;BME280;44794;42.652;23.318;2022-12-16T07:03:00;94149.69;;;5.10;100.00
59009;BME280;44794;42.652;23.318;2022-12-16T07:05:44;94167.88;;;4.93;100.00
59009;BME280;44794;42.652;23.318;2022-12-16T07:08:28;94180.47;;;4.97;100.00
59009;BME280;44794;42.652;23.318;2022-12-16T07:11:12;94177.56;;;4.74;100.00
59009;BME280;44794;42.652;23.318;2022-12-16T07:14:07;94192.19;;;4.73;100.00
59009;BME280;44794;42.652;23.318;2022-12-16T07:16:51;94169.97;;;4.72;100.00
59009;BME280;44794;42.652;23.318;2022-12-16T07:19:35;94187.56;;;4.64;100.00
59009;BME280;44794;42.652;23.318;2022-12-16T07:22:19;94157.00;;;4.74;100.00
59009;BME280;44794;42.652;23.318;2022-12-16T07:25:03;94160.72;;;4.98;100.00
59009;BME280;44794;42.652;23.318;2022-12-16T07:27:47;94180.19;;;5.02;100.00
59009;BME280;44794;42.652;23.318;2022-12-16T07:30:31;94167.88;;;4.93;100.00
59009;BME280;44794;42.652;23.318;2022-12-16T07:33:15;94171.09;;;4.96;100.00
59009;BME280;44794;42.652;23.318;2022-12-16T07:35:59;94174.78;;;5.06;100.00
59009;BME280;44794;42.652;23.318;2022-12-16T07:38:43;94175.88;;;5.16;100.00
59009;BME280;44794;42.652;23.318;2022-12-16T07:41:31;94174.13;;;5.03;100.00
59009;BME280;44794;42.652;23.318;2022-12-16T07:44:32;94186.44;;;4.98;100.00
59009;BME280;44794;42.652;23.318;2022-12-16T07:47:16;94197.84;;;4.94;100.00
59009;BME280;44794;42.652;23.318;2022-12-16T07:50:00;94173.19;;;4.90;100.00
59009;BME280;44794;42.652;23.318;2022-12-16T07:52:44;94184.00;;;4.81;100.00
59009;BME280;44794;42.652;23.318;2022-12-16T07:55:28;94182.19;;;4.83;100.00
59009;BME280;44794;42.652;23.318;2022-12-16T07:58:12;94194.53;;;5.06;100.00
59009;BME280;44794;42.652;23.318;2022-12-16T08:00:56;94194.53;;;5.06;100.00
59009;BME280;44794;42.652;23.318;2022-12-16T08:03:40;94183.94;;;4.82;100.00
59009;BME280;44794;42.652;23.318;2022-12-16T08:06:24;94199.13;;;5.01;100.00
59009;BME280;44794;42.652;23.318;2022-12-16T08:09:08;94193.78;;;4.90;100.00
59009;BME280;44794;42.652;23.318;2022-12-16T08:11:52;94190.13;;;5.08;100.00
59009;BME280;44794;42.652;23.318;2022-12-16T08:14:36;94193.38;;;5.25;100.00
59009;BME280;44794;42.652;23.318;2022-12-16T08:17:20;94204.09;;;5.31;100.00
59009;BME280;44794;42.652;23.318;2022-12-16T08:20:05;94183.31;;;5.62;100.00
59009;BME280;44794;42.652;23.318;2022-12-16T08:22:49;94202.50;;;5.71;100.00
59009;BME280;44794;42.652;23.318;2022-12-16T08:25:33;94206.28;;;5.65;100.00
59009;BME280;44794;42.652;23.318;2022-12-16T08:28:17;94226.91;;;5.79;100.00
59009;BME280;44794;42.652;23.318;2022-12-16T08:31:01;94234.47;;;5.82;100.00
59009;BME280;44794;42.652;23.318;2022-12-16T08:33:45;94213.78;;;6.10;100.00
59009;BME280;44794;42.652;23.318;2022-12-16T08:36:29;94242.91;;;6.24;100.00
59009;BME280;44794;42.652;23.318;2022-12-16T08:39:14;94270.81;;;6.32;100.00
59009;BME280;44794;42.652;23.318;2022-12-16T08:41:58;94261.34;;;6.18;100.00
59009;BME280;44794;42.652;23.318;2022-12-16T08:44:41;94273.44;;;6.18;100.00
59009;BME280;44794;42.652;23.318;2022-12-16T08:47:26;94253.88;;;6.54;100.00
59009;BME280;44794;42.652;23.318;2022-12-16T08:50:10;94270.34;;;6.66;100.00
59009;BME280;44794;42.652;23.318;2022-12-16T08:52:54;94261.31;;;6.85;100.00
59009;BME280;44794;42.652;23.318;2022-12-16T08:55:38;94256.97;;;7.24;100.00
59009;BME280;44794;42.652;23.318;2022-12-16T08:58:22;94277.59;;;7.12;100.00
59009;BME280;44794;42.652;23.318;2022-12-16T09:01:08;94280.03;;;7.52;100.00
59009;BME280;44794;42.652;23.318;2022-12-16T09:03:52;94283.75;;;7.73;100.00
59009;BME280;44794;42.652;23.318;2022-12-16T09:06:39;94285.16;;;7.77;100.00
59009;BME280;44794;42.652;23.318;2022-12-16T09:09:34;94292.66;;;8.29;100.00
59009;BME280;44794;42.652;23.318;2022-12-16T09:12:19;94293.38;;;8.44;100.00
59009;BME280;44794;42.652;23.318;2022-12-16T09:15:03;94322.16;;;8.39;100.00
59009;BME280;44794;42.652;23.318;2022-12-16T09:17:54;94313.59;;;8.62;100.00
59009;BME280;44794;42.652;23.318;2022-12-16T09:20:38;94298.72;;;8.53;99.79
59009;BME280;44794;42.652;23.318;2022-12-16T09:23:23;94320.50;;;8.38;99.03
59009;BME280;44794;42.652;23.318;2022-12-16T09:26:06;94307.59;;;8.14;100.00
59009;BME280;44794;42.652;23.318;2022-12-16T09:28:50;94296.94;;;8.06;100.00
59009;BME280;44794;42.652;23.318;2022-12-16T09:31:34;94269.31;;;8.19;100.00
59009;BME280;44794;42.652;23.318;2022-12-16T09:34:19;94285.25;;;8.25;100.00
59009;BME280;44794;42.652;23.318;2022-12-16T09:37:03;94262.94;;;8.47;100.00
59009;BME280;44794;42.652;23.318;2022-12-16T09:39:47;94277.28;;;8.51;100.00
59009;BME280;44794;42.652;23.318;2022-12-16T09:48:41;94240.25;;;8.03;100.00
59009;BME280;44794;42.652;23.318;2022-12-16T09:51:27;94259.38;;;8.00;100.00
59009;BME280;44794;42.652;23.318;2022-12-16T09:54:18;94217.06;;;8.14;100.00
59009;BME280;44794;42.652;23.318;2022-12-16T09:57:03;94234.38;;;8.01;100.00
59009;BME280;44794;42.652;23.318;2022-12-16T09:59:54;94225.25;;;8.08;100.00
59009;BME280;44794;42.652;23.318;2022-12-16T10:02:42;94225.16;;;7.97;100.00
59009;BME280;44794;42.652;23.318;2022-12-16T10:08:42;94234.13;;;8.28;100.00
59009;BME280;44794;42.652;23.318;2022-12-16T10:15:37;94244.31;;;8.42;100.00
59009;BME280;44794;42.652;23.318;2022-12-16T10:18:44;94249.94;;;8.60;100.00
59009;BME280;44794;42.652;23.318;2022-12-16T10:21:49;94247.56;;;8.80;100.00
59009;BME280;44794;42.652;23.318;2022-12-16T10:25:21;94263.81;;;8.82;100.00
59009;BME280;44794;42.652;23.318;2022-12-16T10:28:09;94260.06;;;8.86;99.53
59009;BME280;44794;42.652;23.318;2022-12-16T10:30:57;94235.31;;;9.05;99.46
59009;BME280;44794;42.652;23.318;2022-12-16T10:33:42;94237.09;;;9.16;98.57
59009;BME280;44794;42.652;23.318;2022-12-16T10:36:29;94236.31;;;9.26;97.99
59009;BME280;44794;42.652;23.318;2022-12-16T10:39:36;94229.91;;;9.54;96.16
59009;BME280;44794;42.652;23.318;2022-12-16T10:42:29;94252.75;;;9.60;95.05
59009;BME280;44794;42.652;23.318;2022-12-16T10:45:20;94252.31;;;9.66;94.58
59009;BME280;44794;42.652;23.318;2022-12-16T10:48:09;94257.38;;;9.89;93.50
59009;BME280;44794;42.652;23.318;2022-12-16T10:50:53;94258.47;;;9.97;93.12
59009;BME280;44794;42.652;23.318;2022-12-16T10:53:37;94241.28;;;10.07;92.87
59009;BME280;44794;42.652;23.318;2022-12-16T10:59:06;94244.91;;;10.27;91.14
59009;BME280;44794;42.652;23.318;2022-12-16T11:01:58;94260.22;;;10.30;90.72
59009;BME280;44794;42.652;23.318;2022-12-16T11:04:43;94253.28;;;10.30;91.39
59009;BME280;44794;42.652;23.318;2022-12-16T11:10:42;94266.69;;;10.46;90.31
59009;BME280;44794;42.652;23.318;2022-12-16T11:13:32;94266.00;;;10.44;89.07
59009;BME280;44794;42.652;23.318;2022-12-16T11:16:18;94284.63;;;10.49;88.15
59009;BME280;44794;42.652;23.318;2022-12-16T11:19:03;94274.28;;;10.38;88.01
59009;BME280;44794;42.652;23.318;2022-12-16T11:21:47;94273.13;;;10.31;88.19
59009;BME280;44794;42.652;23.318;2022-12-16T11:24:32;94252.31;;;10.42;88.69
59009;BME280;44794;42.652;23.318;2022-12-16T11:30:20;94267.88;;;10.53;87.80
59009;BME280;44794;42.652;23.318;2022-12-16T11:33:11;94261.94;;;10.73;87.33
59009;BME280;44794;42.652;23.318;2022-12-16T11:36:08;94256.47;;;10.87;87.20
59009;BME280;44794;42.652;23.318;2022-12-16T11:38:53;94254.31;;;10.92;86.98
59009;BME280;44794;42.652;23.318;2022-12-16T11:41:40;94262.78;;;11.05;85.97
59009;BME280;44794;42.652;23.318;2022-12-16T11:44:34;94256.94;;;11.12;85.71
59009;BME280;44794;42.652;23.318;2022-12-16T11:47:35;94250.97;;;11.32;85.26
59009;BME280;44794;42.652;23.318;2022-12-16T11:50:22;94246.28;;;11.46;84.26
59009;BME280;44794;42.652;23.318;2022-12-16T11:53:39;94259.13;;;11.59;83.67
59009;BME280;44794;42.652;23.318;2022-12-16T11:56:31;94253.72;;;11.71;83.26
59009;BME280;44794;42.652;23.318;2022-12-16T11:59:38;94248.44;;;11.82;82.43
59009;BME280;44794;42.652;23.318;2022-12-16T12:02:31;94242.16;;;11.85;81.65
59009;BME280;44794;42.652;23.318;2022-12-16T12:05:25;94223.00;;;11.86;81.82
59009;BME280;44794;42.652;23.318;2022-12-16T12:08:24;94252.00;;;11.81;82.42
59009;BME280;44794;42.652;23.318;2022-12-16T12:11:26;94215.75;;;11.89;82.82
59009;BME280;44794;42.652;23.318;2022-12-16T12:14:22;94224.16;;;12.02;82.46
59009;BME280;44794;42.652;23.318;2022-12-16T12:20:57;94235.59;;;12.20;81.45
59009;BME280;44794;42.652;23.318;2022-12-16T12:23:57;94225.50;;;12.26;81.85
59009;BME280;44794;42.652;23.318;2022-12-16T12:26:56;94209.75;;;12.28;81.85
59009;BME280;44794;42.652;23.318;2022-12-16T12:30:06;94224.75;;;12.45;81.38
59009;BME280;44794;42.652;23.318;2022-12-16T12:36:24;94210.66;;;12.66;81.18
59009;BME280;44794;42.652;23.318;2022-12-16T12:48:28;94220.16;;;12.86;80.41
59009;BME280;44794;42.652;23.318;2022-12-16T12:57:19;94223.22;;;13.00;81.03
59009;BME280;44794;42.652;23.318;2022-12-16T13:00:14;94216.50;;;13.07;80.74
59009;BME280;44794;42.652;23.318;2022-12-16T13:05:56;94228.16;;;13.41;78.35
59009;BME280;44794;42.652;23.318;2022-12-16T13:08:55;94232.28;;;13.34;78.40
59009;BME280;44794;42.652;23.318;2022-12-16T13:20:43;94214.41;;;13.39;78.60
59009;BME280;44794;42.652;23.318;2022-12-16T13:23:32;94205.50;;;13.42;80.05
59009;BME280;44794;42.652;23.318;2022-12-16T13:26:21;94210.28;;;13.46;79.30
59009;BME280;44794;42.652;23.318;2022-12-16T13:32:50;94212.63;;;13.49;78.45
59009;BME280;44794;42.652;23.318;2022-12-16T13:35:51;94197.78;;;13.49;79.15
59009;BME280;44794;42.652;23.318;2022-12-16T13:38:49;94213.47;;;13.40;79.19
59009;BME280;44794;42.652;23.318;2022-12-16T13:50:39;94215.41;;;13.00;82.23
59009;BME280;44794;42.652;23.318;2022-12-16T13:53:52;94228.59;;;13.08;82.21
59009;BME280;44794;42.652;23.318;2022-12-16T13:56:58;94231.00;;;12.81;82.04
59009;BME280;44794;42.652;23.318;2022-12-16T14:00:23;94216.16;;;12.63;84.48
59009;BME280;44794;42.652;23.318;2022-12-16T14:05:36;94238.59;;;12.55;84.29
59009;BME280;44794;42.652;23.318;2022-12-16T14:08:36;94242.25;;;12.33;85.44
59009;BME280;44794;42.652;23.318;2022-12-16T14:14:34;94245.41;;;12.07;87.42
59009;BME280;44794;42.652;23.318;2022-12-16T14:17:27;94237.25;;;12.21;87.41
59009;BME280;44794;42.652;23.318;2022-12-16T14:20:21;94232.72;;;12.13;87.71
59009;BME280;44794;42.652;23.318;2022-12-16T14:23:40;94244.22;;;12.11;88.08
59009;BME280;44794;42.652;23.318;2022-12-16T14:26:27;94246.84;;;11.91;88.51
59009;BME280;44794;42.652;23.318;2022-12-16T14:29:24;94237.19;;;12.02;89.31
59009;BME280;44794;42.652;23.318;2022-12-16T14:35:15;94248.06;;;11.66;91.30
59009;BME280;44794;42.652;23.318;2022-12-16T14:38:19;94225.31;;;11.59;91.87
59009;BME280;44794;42.652;23.318;2022-12-16T14:41:04;94221.09;;;11.47;93.04
59009;BME280;44794;42.652;23.318;2022-12-16T14:43:48;94226.00;;;11.40;93.27
59009;BME280;44794;42.652;23.318;2022-12-16T14:46:38;94204.66;;;11.26;94.72
59009;BME280;44794;42.652;23.318;2022-12-16T14:49:28;94204.81;;;11.24;95.69
59009;BME280;44794;42.652;23.318;2022-12-16T14:52:29;94207.56;;;11.12;96.18
59009;BME280;44794;42.652;23.318;2022-12-16T14:58:46;94208.66;;;11.10;97.41
59009;BME280;44794;42.652;23.318;2022-12-16T15:01:29;94187.66;;;11.02;97.35
59009;BME280;44794;42.652;23.318;2022-12-16T15:04:17;94200.84;;;11.10;97.72
59009;BME280;44794;42.652;23.318;2022-12-16T15:07:12;94203.03;;;11.25;96.68
59009;BME280;44794;42.652;23.318;2022-12-16T15:10:00;94202.66;;;11.50;94.21
59009;BME280;44794;42.652;23.318;2022-12-16T15:12:46;94198.56;;;11.36;94.75
59009;BME280;44794;42.652;23.318;2022-12-16T15:15:44;94204.19;;;11.52;94.23
59009;BME280;44794;42.652;23.318;2022-12-16T15:18:37;94203.38;;;11.52;93.55
59009;BME280;44794;42.652;23.318;2022-12-16T15:21:23;94210.25;;;11.53;92.75
59009;BME280;44794;42.652;23.318;2022-12-16T15:24:19;94203.16;;;11.44;93.09
59009;BME280;44794;42.652;23.318;2022-12-16T15:27:26;94212.56;;;11.35;93.82
59009;BME280;44794;42.652;23.318;2022-12-16T15:30:36;94213.22;;;11.37;93.44
59009;BME280;44794;42.652;23.318;2022-12-16T15:33:24;94216.91;;;11.35;93.16
59009;BME280;44794;42.652;23.318;2022-12-16T15:36:30;94224.50;;;11.27;93.42
59009;BME280;44794;42.652;23.318;2022-12-16T15:39:19;94223.91;;;11.34;92.40
59009;BME280;44794;42.652;23.318;2022-12-16T15:42:04;94249.25;;;11.42;91.76
59009;BME280;44794;42.652;23.318;2022-12-16T15:44:50;94254.59;;;11.81;88.62
59009;BME280;44794;42.652;23.318;2022-12-16T15:47:36;94255.81;;;11.77;88.12
59009;BME280;44794;42.652;23.318;2022-12-16T15:50:25;94261.03;;;11.77;88.21
59009;BME280;44794;42.652;23.318;2022-12-16T15:56:26;94244.16;;;11.72;87.44
59009;BME280;44794;42.652;23.318;2022-12-16T15:59:20;94262.59;;;11.69;87.71
59009;BME280;44794;42.652;23.318;2022-12-16T16:02:15;94266.72;;;11.71;87.80
59009;BME280;44794;42.652;23.318;2022-12-16T16:05:00;94268.06;;;11.66;88.44
59009;BME280;44794;42.652;23.318;2022-12-16T16:07:45;94257.16;;;11.51;89.21
59009;BME280;44794;42.652;23.318;2022-12-16T16:10:36;94259.13;;;11.48;89.93
59009;BME280;44794;42.652;23.318;2022-12-16T16:13:20;94251.63;;;11.45;90.19
59009;BME280;44794;42.652;23.318;2022-12-16T16:16:05;94267.00;;;11.37;90.78
59009;BME280;44794;42.652;23.318;2022-12-16T16:18:49;94268.59;;;11.28;91.24
59009;BME280;44794;42.652;23.318;2022-12-16T16:21:33;94258.69;;;11.22;92.27
59009;BME280;44794;42.652;23.318;2022-12-16T16:24:17;94266.25;;;10.94;94.20
59009;BME280;44794;42.652;23.318;2022-12-16T16:27:02;94244.94;;;10.80;95.57
59009;BME280;44794;42.652;23.318;2022-12-16T16:29:55;94246.59;;;10.70;97.51
59009;BME280;44794;42.652;23.318;2022-12-16T16:32:39;94244.13;;;10.57;98.30
59009;BME280;44794;42.652;23.318;2022-12-16T16:35:23;94237.38;;;10.35;100.00
59009;BME280;44794;42.652;23.318;2022-12-16T16:38:09;94226.84;;;10.36;100.00
59009;BME280;44794;42.652;23.318;2022-12-16T16:40:54;94231.31;;;10.34;100.00
59009;BME280;44794;42.652;23.318;2022-12-16T16:43:38;94259.34;;;10.73;97.57
59009;BME280;44794;42.652;23.318;2022-12-16T16:49:22;94266.16;;;11.16;92.82
59009;BME280;44794;42.652;23.318;2022-12-16T16:52:11;94274.47;;;11.30;90.29
59009;BME280;44794;42.652;23.318;2022-12-16T16:54:56;94268.44;;;11.61;88.47
59009;BME280;44794;42.652;23.318;2022-12-16T16:57:40;94286.19;;;11.97;85.78
59009;BME280;44794;42.652;23.318;2022-12-16T17:00:27;94264.25;;;11.90;85.63
59009;BME280;44794;42.652;23.318;2022-12-16T17:03:14;94287.66;;;11.90;85.40
59009;BME280;44794;42.652;23.318;2022-12-16T17:06:02;94285.63;;;11.94;84.83
59009;BME280;44794;42.652;23.318;2022-12-16T17:08:54;94290.94;;;12.12;83.53
59009;BME280;44794;42.652;23.318;2022-12-16T17:11:38;94279.22;;;11.98;83.94
59009;BME280;44794;42.652;23.318;2022-12-16T17:14:26;94285.75;;;11.92;85.00
59009;BME280;44794;42.652;23.318;2022-12-16T17:17:10;94273.53;;;12.13;84.08
59009;BME280;44794;42.652;23.318;2022-12-16T17:19:54;94258.72;;;12.04;83.79
59009;BME280;44794;42.652;23.318;2022-12-16T17:22:39;94263.44;;;12.19;83.19
59009;BME280;44794;42.652;23.318;2022-12-16T17:25:23;94283.38;;;12.09;83.69
59009;BME280;44794;42.652;23.318;2022-12-16T17:28:09;94275.97;;;12.05;83.92
59009;BME280;44794;42.652;23.318;2022-12-16T17:30:54;94271.91;;;11.92;84.51
59009;BME280;44794;42.652;23.318;2022-12-16T17:33:39;94274.84;;;11.98;84.57
59009;BME280;44794;42.652;23.318;2022-12-16T17:36:23;94290.31;;;11.79;85.29
59009;BME280;44794;42.652;23.318;2022-12-16T17:39:10;94264.31;;;11.79;85.47
59009;BME280;44794;42.652;23.318;2022-12-16T17:41:54;94266.94;;;11.59;85.97
59009;BME280;44794;42.652;23.318;2022-12-16T17:44:39;94269.69;;;11.46;86.97
59009;BME280;44794;42.652;23.318;2022-12-16T17:47:23;94269.84;;;11.14;89.50
59009;BME280;44794;42.652;23.318;2022-12-16T17:50:07;94274.19;;;10.82;91.61
59009;BME280;44794;42.652;23.318;2022-12-16T17:52:53;94277.09;;;10.57;93.82
59009;BME280;44794;42.652;23.318;2022-12-16T17:55:40;94249.13;;;9.95;98.67
59009;BME280;44794;42.652;23.318;2022-12-16T17:58:30;94245.09;;;9.58;100.00
59009;BME280;44794;42.652;23.318;2022-12-16T18:01:14;94245.66;;;9.40;100.00
59009;BME280;44794;42.652;23.318;2022-12-16T18:04:24;94223.47;;;9.25;100.00
59009;BME280;44794;42.652;23.318;2022-12-16T18:07:08;94224.75;;;9.08;100.00
59009;BME280;44794;42.652;23.318;2022-12-16T18:09:52;94203.84;;;8.99;100.00
59009;BME280;44794;42.652;23.318;2022-12-16T18:12:36;94201.97;;;8.90;100.00
59009;BME280;44794;42.652;23.318;2022-12-16T18:15:20;94211.19;;;8.82;100.00
59009;BME280;44794;42.652;23.318;2022-12-16T18:18:04;94204.22;;;8.71;100.00
59009;BME280;44794;42.652;23.318;2022-12-16T18:20:49;94193.50;;;8.65;100.00
59009;BME280;44794;42.652;23.318;2022-12-16T18:23:32;94183.22;;;8.52;100.00
59009;BME280;44794;42.652;23.318;2022-12-16T18:26:17;94191.56;;;8.56;100.00
59009;BME280;44794;42.652;23.318;2022-12-16T18:29:01;94195.41;;;8.50;100.00
59009;BME280;44794;42.652;23.318;2022-12-16T18:31:47;94174.50;;;8.53;100.00
59009;BME280;44794;42.652;23.318;2022-12-16T18:34:31;94196.47;;;8.48;100.00
59009;BME280;44794;42.652;23.318;2022-12-16T18:37:15;94185.59;;;8.32;100.00
59009;BME280;44794;42.652;23.318;2022-12-16T18:39:59;94183.63;;;8.35;100.00
59009;BME280;44794;42.652;23.318;2022-12-16T18:42:43;94172.91;;;8.17;100.00
59009;BME280;44794;42.652;23.318;2022-12-16T18:45:28;94180.22;;;8.22;100.00
59009;BME280;44794;42.652;23.318;2022-12-16T18:50:58;94187.91;;;8.12;100.00
59009;BME280;44794;42.652;23.318;2022-12-16T18:53:44;94195.47;;;8.02;100.00
59009;BME280;44794;42.652;23.318;2022-12-16T18:56:28;94188.47;;;7.92;100.00
59009;BME280;44794;42.652;23.318;2022-12-16T18:59:12;94198.38;;;7.98;100.00
59009;BME280;44794;42.652;23.318;2022-12-16T19:01:56;94180.50;;;7.95;100.00
59009;BME280;44794;42.652;23.318;2022-12-16T19:04:41;94192.19;;;7.88;100.00
59009;BME280;44794;42.652;23.318;2022-12-16T19:07:25;94184.19;;;7.80;100.00
59009;BME280;44794;42.652;23.318;2022-12-16T19:10:09;94187.69;;;7.79;100.00
59009;BME280;44794;42.652;23.318;2022-12-16T19:16:07;94168.38;;;7.72;100.00
59009;BME280;44794;42.652;23.318;2022-12-16T19:18:51;94188.44;;;7.68;100.00
59009;BME280;44794;42.652;23.318;2022-12-16T19:21:35;94198.22;;;7.63;100.00
59009;BME280;44794;42.652;23.318;2022-12-16T19:24:19;94189.16;;;7.58;100.00
59009;BME280;44794;42.652;23.318;2022-12-16T19:27:03;94188.31;;;7.57;100.00
59009;BME280;44794;42.652;23.318;2022-12-16T19:29:47;94184.31;;;7.66;100.00
59009;BME280;44794;42.652;23.318;2022-12-16T19:32:31;94201.06;;;7.60;100.00
59009;BME280;44794;42.652;23.318;2022-12-16T19:35:15;94190.91;;;7.57;100.00
59009;BME280;44794;42.652;23.318;2022-12-16T19:37:59;94201.16;;;7.59;100.00
59009;BME280;44794;42.652;23.318;2022-12-16T19:40:53;94190.94;;;7.45;100.00
59009;BME280;44794;42.652;23.318;2022-12-16T19:43:37;94203.94;;;7.43;100.00
59009;BME280;44794;42.652;23.318;2022-12-16T19:46:21;94212.63;;;7.43;100.00
59009;BME280;44794;42.652;23.318;2022-12-16T19:49:05;94188.06;;;7.37;100.00
59009;BME280;44794;42.652;23.318;2022-12-16T19:51:49;94200.78;;;7.28;100.00
59009;BME280;44794;42.652;23.318;2022-12-16T19:54:33;94205.91;;;7.15;100.00
59009;BME280;44794;42.652;23.318;2022-12-16T19:57:19;94205.91;;;7.15;100.00
59009;BME280;44794;42.652;23.318;2022-12-16T20:00:04;94222.16;;;7.17;100.00